LOWWLSZS

Guest
Details From LOWW - Wien Schwechat
To LSZS - Samedan
Flight Number -
Tags Generated
Created
Modified
Stats Distance 291 nm / 539 km
Max Altitude 0 ft / 0 m
Waypoints 3
Social Downloads 0
Likes 0
Share VATSIM

Download

Looking for another format? Having issues loading an existing format? Contact us
Advertisement - Login to hide

Notes

Generated

Route

LOWW RESIA LSZS

ID Type Via Altitude Latitude Longitude Leg Dist Tot Dist Heading (true) Name
O LOWW APT - 0 ft / 0 m 48.11978˚ 16.57818˚ - 0 nm - -
RESIA FIX - 0 ft / 0 m 46.47833˚ 10.04333˚ 283 nm 283 nm 252° / 247° -
O LSZS APT - 0 ft / 0 m 46.52683˚ 9.87829˚ 7 nm 291 nm 293° / 293° Samedan

Altitude Profile

Advertisement - Login to hide

Weather


0- 5 10 15 20 25 30 35+ Temperature / ° C

Clouds and Precipitation
Forecast for 2018-05-24 12:00 UTC. Updated an hour ago

Ground ~20,000 ft ~40,000 ft Winds

LOWW

Details ICAO LOWW (VIE)
Name Wien Schwechat
Region Austria
Timezone Europe/Vienna (UTC+2.0)
Stats Elevation 600 ft / 183 m (AMSL)
Location 48.110068° 16.569637°
Runways 2
Magnetic Variation 4.309° E

METAR

LOWW 240950Z 05005KT 310V110 9999 FEW030 FEW050CB BKN300 24/15 Q1019 NOSIG

Decode

TAF

TAF LOWW 240815Z 2409/2515 05005KT 9999 FEW040 FEW040CB BKN300 TX25/2412Z TN16/2502Z TEMPO 2412/2417 VRB10G20KT 5000 TSRA BKN020 SCT030CB BECMG 2422/2424 VRB02KT SCT010 BKN030 TEMPO 2500/2509 2000 SHRA FEW008 BKN010 FEW020CB TEMPO 2509/2515 05008KT BKN030 FEW030CB PROB40 TEMPO 2511/2515 VRB10KT 6000 TSRA SCT030 FEW030CB BKN050

Decode

Departure Runways

ID Width Length Bearing (true) Bearing (mag) Surface Threshold Offset Overrun Length
11 148 ft / 45 m 11,457 ft / 3,492 m 115.99° 111.68° Asphalt 0 ft / 0 m 0 ft / 0 m
16 148 ft / 45 m 11,811 ft / 3,600 m 164.23° 159.92° Asphalt 0 ft / 0 m 33 ft / 10 m
29 148 ft / 45 m 11,457 ft / 3,492 m 296.03° 291.72° Asphalt 0 ft / 0 m 0 ft / 0 m
34 148 ft / 45 m 11,811 ft / 3,600 m 344.24° 339.93° Asphalt 0 ft / 0 m 0 ft / 0 m

LSZS

Details ICAO LSZS (SMV)
Name Samedan
Region Switzerland
Timezone Europe/Zurich (UTC+2.0)
Stats Elevation 5,600 ft / 1,707 m (AMSL)
Location 46.534207° 9.883938°
Runways 1
Magnetic Variation 2.709° E

METAR

LSZS 241020Z 21008KT 9999 BKN070 14/05 Q1021 RMK K

Decode

TAF

Not found

Destination Runways

ID Width Length Bearing (true) Bearing (mag) Surface Threshold Offset Overrun Length
03 131 ft / 40 m 6,059 ft / 1,847 m 29.10° 26.39° Asphalt 0 ft / 0 m 0 ft / 0 m
21 131 ft / 40 m 6,059 ft / 1,847 m 209.10° 206.39° Asphalt 361 ft / 110 m 0 ft / 0 m

Popular Alternatives